﻿ProjectID	SampleID	SampleType	TaxonomyID	UniqCodeType	UniqCode	SampleName	ScientificName	CommonName	CollectionYear	CollectionMonth	CollectionDay	SamplingTimeStartEnd	SamplingTimeAMPM	SamplingDuration	WeatherStartEnd	CollectionRegion	CollectionCountry	CollectionArea	CollectionLatitudeFrom	CollectionLatitudeTo	CollectionLongitudeFrom	CollectionLongitudeTo	Sex	TissueOrgan	TissueLipid	TissueMoist	Weight	WeightUnit	Length	LengthUnit	LengthType	GrowthStage	Age	Disease	TemperatureStartEnd	WaterTemperatureStartEnd	pH	DO	EC	EC_temp	Salinity	SS	WaterDepthM	TransparencyM	WaterColor	SedimentTemperatureStartEnd	SedimentDepthM	SedimentAppearance	SedimentColor	SedimentSurfaceColor	SedimentOdor	SedimentImpurities	SedimentMoistureOnSiteAnalysis	IgnitionLossOnSiteAnalysis	SoilDepthM	FlowRate	MeanPM10	MeanTotalSuspendedParticles	HumidityStartEnd	WindDirectionStartEnd	WindSpeedMSStartEnd	AmountOfCollectedAirStartEnd	Remarks	RegisterDate	UpdateDate
PRA000079	SAA004498	ST023				TP-1_53	Sediment	"Sediment Core"	2002	6	6					Asia	Japan	"Tokyo Bay"	35.58666667		139.8783333						17.65	"g wet"															13				"0 - 0.05"						81	12.3									"Ignition loss(%):at 600 ℃, 2h; Depositional age (year)(by <sup>210</sup>Pb method): 1998; Bulk dens(g/cm3): 1.11"	2018/11/8	2018/11/8
PRA000079	SAA004499	ST023				TP-1_56	Sediment	"Sediment Core"	2002	6	6					Asia	Japan	"Tokyo Bay"	35.58666667		139.8783333						15.86	"g wet"															13				"0.05 - 0.1"						73.8	11.3									"Ignition loss(%):at 600 ℃, 2h; Depositional age (year)(by <sup>210</sup>Pb method): 1989; Bulk dens(g/cm3): 11.16"	2018/11/8	2018/11/8
PRA000079	SAA004500	ST023				TP-1_59	Sediment	"Sediment Core"	2002	6	6					Asia	Japan	"Tokyo Bay"	35.58666667		139.8783333						15.7	"g wet"															13				"0.1 - 0.15"						73.9	10.8									"Ignition loss(%):at 600 ℃, 2h; Depositional age (year)(by <sup>210</sup>Pb method): 1979; Bulk dens(g/cm3): 11.17"	2018/11/8	2018/11/8
PRA000079	SAA004501	ST023				TP-1_62	Sediment	"Sediment Core"	2002	6	6					Asia	Japan	"Tokyo Bay"	35.58666667		139.8783333						16.7	"g wet"															13				"0.15 - 0.2"						70.9	9.7									"Ignition loss(%):at 600 ℃, 2h; Depositional age (year)(by <sup>210</sup>Pb method): 1968; Bulk dens(g/cm3): 11.19"	2018/11/8	2018/11/8
PRA000079	SAA004502	ST023				TP-1_67	Sediment	"Sediment Core"	2002	6	6					Asia	Japan	"Tokyo Bay"	35.58666667		139.8783333						16.36	"g wet"															13				"0.25 - 0.3"						67.9	8.2									"Ignition loss(%):at 600 ℃, 2h; Depositional age (year)(by <sup>210</sup>Pb method): 1943; Bulk dens(g/cm3): 11.22"	2018/11/8	2018/11/8
PRA000079	SAA004503	ST023				TP-1_69	Sediment	"Sediment Core"	2002	6	6					Asia	Japan	"Tokyo Bay"	35.58666667		139.8783333						16	"g wet"															13				"0.3 - 0.35"						66.5	7.8									"Ignition loss(%):at 600 ℃, 2h; Depositional age (year)(by <sup>210</sup>Pb method): 1930; Bulk dens(g/cm3): 11.23"	2018/11/8	2018/11/8
PRA000079	SAA004504	ST023				TP-1_71	Sediment	"Sediment Core"	2002	6	6					Asia	Japan	"Tokyo Bay"	35.58666667		139.8783333						17.25	"g wet"															13				"0.35 - 0.4"						65.4	7.8									"Ignition loss(%):at 600 ℃, 2h; Depositional age (year)(by <sup>210</sup>Pb method): 1915; Bulk dens(g/cm3): 11.23"	2018/11/8	2018/11/8
PRA000079	SAA004505	ST023				TP-4_106	Sediment	"Sediment Core"	2002	6	6					Asia	Japan	"Tokyo Bay"	35.545		139.9133333																						20				"0 - 0.05"						84.5	13.8									"Ignition loss(%):at 600 ℃, 2h; Depositional age (year)(by <sup>210</sup>Pb method): 2000; Bulk dens(g/cm3): 11.09"	2018/11/8	2018/11/8
PRA000079	SAA004506	ST023				TP-4_109	Sediment	"Sediment Core"	2002	6	6					Asia	Japan	"Tokyo Bay"	35.545		139.9133333																						20				"0.05 - 0.1"						77.9	12.5									"Ignition loss(%):at 600 ℃, 2h; Depositional age (year)(by <sup>210</sup>Pb method): 1995; Bulk dens(g/cm3): 11.14"	2018/11/8	2018/11/8
PRA000079	SAA004507	ST023				TP-4_111	Sediment	"Sediment Core"	2002	6	6					Asia	Japan	"Tokyo Bay"	35.545		139.9133333																						20				"0.1 - 0.15"						77.4	12.2									"Ignition loss(%):at 600 ℃, 2h; Depositional age (year)(by <sup>210</sup>Pb method): 1988; Bulk dens(g/cm3): 11.14"	2018/11/8	2018/11/8
PRA000079	SAA004508	ST023				TP-4_116	Sediment	"Sediment Core"	2002	6	6					Asia	Japan	"Tokyo Bay"	35.545		139.9133333																						20				"0.15 - 0.2"						77.3	11.9									"Ignition loss(%):at 600 ℃, 2h; Depositional age (year)(by <sup>210</sup>Pb method): 1982; Bulk dens(g/cm3): 11.14"	2018/11/8	2018/11/8
PRA000079	SAA004509	ST023				TP-4_118	Sediment	"Sediment Core"	2002	6	6					Asia	Japan	"Tokyo Bay"	35.545		139.9133333																						20				"0.2 - 0.25"						76.4	10.7									"Ignition loss(%):at 600 ℃, 2h; Depositional age (year)(by <sup>210</sup>Pb method): 1975; Bulk dens(g/cm3): 11.15"	2018/11/8	2018/11/8
PRA000079	SAA004510	ST023				TP-4_119	Sediment	"Sediment Core"	2002	6	6					Asia	Japan	"Tokyo Bay"	35.545		139.9133333																						20				"0.25 - 0.3"						76.6	11									"Ignition loss(%):at 600 ℃, 2h; Depositional age (year)(by <sup>210</sup>Pb method): 1968; Bulk dens(g/cm3): 11.15"	2018/11/8	2018/11/8
PRA000079	SAA004511	ST023				TP-4_121	Sediment	"Sediment Core"	2002	6	6					Asia	Japan	"Tokyo Bay"	35.545		139.9133333																						20				"0.3 - 0.35"						73.8	10.1									"Ignition loss(%):at 600 ℃, 2h; Depositional age (year)(by <sup>210</sup>Pb method): 1961; Bulk dens(g/cm3): 11.18"	2018/11/8	2018/11/8
PRA000079	SAA004512	ST023				TP-4_126	Sediment	"Sediment Core"	2002	6	6					Asia	Japan	"Tokyo Bay"	35.545		139.9133333																						20				"0.4 - 0.45"						75.3	9.9									"Ignition loss(%):at 600 ℃, 2h; Depositional age (year)(by <sup>210</sup>Pb method): 1945; Bulk dens(g/cm3): 11.16"	2018/11/8	2018/11/8
PRA000079	SAA004513	ST023				TP-5_29	Sediment	"Sediment Core"	2002	6	5					Asia	Japan	"Tokyo Bay"	35.52833333		139.9783333						15.25	"g wet"															19				"0 - 0.05"						81.9	12.4									"Ignition loss(%):at 600 ℃, 2h; Depositional age (year)(by <sup>210</sup>Pb method): 1999; Bulk dens(g/cm3): 11.12"	2018/11/8	2018/11/8
PRA000079	SAA004514	ST023				TP-5_30	Sediment	"Sediment Core"	2002	6	5					Asia	Japan	"Tokyo Bay"	35.52833333		139.9783333						15.03	"g wet"															19				"0.05 - 0.1"						76.2	12.2									"Ignition loss(%):at 600 ℃, 2h; Depositional age (year)(by <sup>210</sup>Pb method): 1992; Bulk dens(g/cm3): 11.16"	2018/11/8	2018/11/8
PRA000079	SAA004515	ST023				TP-5_35	Sediment	"Sediment Core"	2002	6	5					Asia	Japan	"Tokyo Bay"	35.52833333		139.9783333						15.16	"g wet"															19				"0.1 - 0.15"						75.1	11.3									"Ignition loss(%):at 600 ℃, 2h; Depositional age (year)(by <sup>210</sup>Pb method): 1984; Bulk dens(g/cm3): 11.17"	2018/11/8	2018/11/8
PRA000079	SAA004516	ST023				TP-5_36	Sediment	"Sediment Core"	2002	6	5					Asia	Japan	"Tokyo Bay"	35.52833333		139.9783333						15.12	"g wet"															19				"0.15 - 0.2"						74.6	11.2									"Ignition loss(%):at 600 ℃, 2h; Depositional age (year)(by <sup>210</sup>Pb method): 1975; Bulk dens(g/cm3): 11.17"	2018/11/8	2018/11/8
PRA000079	SAA004517	ST023				TP-5_39	Sediment	"Sediment Core"	2002	6	5					Asia	Japan	"Tokyo Bay"	35.52833333		139.9783333						15.92	"g wet"															19				"0.2 - 0.25"						71.1	9.9									"Ignition loss(%):at 600 ℃, 2h; Depositional age (year)(by <sup>210</sup>Pb method): 1966; Bulk dens(g/cm3): 11.2"	2018/11/8	2018/11/8
PRA000079	SAA004518	ST023				TP-5_43	Sediment	"Sediment Core"	2002	6	5					Asia	Japan	"Tokyo Bay"	35.52833333		139.9783333						15.41	"g wet"															19				"0.3 - 0.35"						67.9	9									"Ignition loss(%):at 600 ℃, 2h; Depositional age (year)(by <sup>210</sup>Pb method): 1945; Bulk dens(g/cm3): 11.24"	2018/11/8	2018/11/8
PRA000079	SAA004519	ST023				TP-5_45	Sediment	"Sediment Core"	2002	6	5					Asia	Japan	"Tokyo Bay"	35.52833333		139.9783333						15.22	"g wet"															19				"0.35 - 0.4"						66.7	8.5									"Ignition loss(%):at 600 ℃, 2h; Depositional age (year)(by <sup>210</sup>Pb method): 1933; Bulk dens(g/cm3): 11.25"	2018/11/8	2018/11/8
PRA000079	SAA004520	ST023				TP-7	Sediment	"Sediment Core"	2002	6	6					Asia	Japan	"Tokyo Bay"	35.46333333		139.7816667						20.94	"g wet"															33				"0 - 0.05"						79.3	12									"Ignition loss(%):at 600 ℃, 2h; Only surface layer was analyzed in this study."	2018/11/8	2018/11/8
PRA000079	SAA004521	ST023				TP-8	Sediment	"Sediment Core"	2002	6	6					Asia	Japan	"Tokyo Bay"	35.42833333		139.845						20.29	"g wet"															25				"0 - 0.05"						71.6	10									"Ignition loss(%):at 600 ℃, 2h; Only surface layer was analyzed in this study."	2018/11/8	2018/11/8
PRA000079	SAA004522	ST023				T-2	Sediment	"Marine sediment"	2002	10	22					Asia	Japan	"Tokyo Bay"	35.38833333		139.7266667						14.4	"g wet"															19				"0 - 0.05"						21.1	3.9									"Ignition loss(%):at 600 ℃, 2h; "	2018/11/8	2018/11/8
PRA000079	SAA004523	ST023				T-3	Sediment	"Marine sediment"	2002	10	22					Asia	Japan	"Tokyo Bay"	35.305		139.7183333						15.61	"g wet"															45				"0 - 0.05"						39.2	5.3									"Ignition loss(%):at 600 ℃, 2h; "	2018/11/8	2018/11/8
PRA000079	SAA004524	ST023				T-4	Sediment	"Marine sediment"	2002	10	22					Asia	Japan	"Tokyo Bay"	35.24833333		139.7566667						16.24	"g wet"															31				"0 - 0.05"						31.9	5.1									"Ignition loss(%):at 600 ℃, 2h; "	2018/11/8	2018/11/8
PRA000079	SAA004525	ST023				T-5	Sediment	"Marine sediment"	2002	8	26					Asia	Japan	"Tokyo Bay"	35.15		139.7166667						15.79	"g wet"															185				"0 - 0.05"						50.7	6.8									"Ignition loss(%):at 600 ℃, 2h; "	2018/11/8	2018/11/8
